Weather History for KMAN - March, 2013

Change the Weather History Date:

Tuesday, March 5, 2013

  Actual Average (KBOI) Record (KBOI)
Temperature  
Mean Temperature 42 °F 42 °F  
Max Temperature 51 °F 51 °F 67 °F (1986)
Min Temperature 32 °F 32 °F 10 °F (1955)
Degree Days  
Heating Degree Days 24 23  
Month to date heating degree days 119  
Since 1 July heating degree days 4278  
Cooling Degree Days 0 0  
Month to date cooling degree days 0  
Year to date cooling degree days 0  
Moisture  
Dew Point 19 °F    
Average Humidity 43    
Maximum Humidity 60    
Minimum Humidity 28    
Precipitation  
Precipitation 0.00 in 0.04 in 0.52 in (1930)
Month to date precipitation 0.21  
Year to date precipitation 2.44  
Snow  
Snow 0.00 in 0.10 in 2.00 in (1951)
Month to date snowfall 0.3  
Since 1 July snowfall 17.9  
Snow Depth -    
Sea Level Pressure  
Sea Level Pressure 29.97 in    
Wind  
Wind Speed 14 mph (SSE)    
Max Wind Speed 28 mph    
Max Gust Speed 36 mph    
Visibility 10 miles    
Events      
T = Trace of Precipitation, MM = Missing Value Source: NWS Daily Summary

Daily Weather History Graph

Daily Weather History Graph

Search for Another Location

Airport or City:

Trip Planner

Search our weather history database for the weather conditions in past years. The results will help you decide how hot, cold, wet, or windy it might be!

Date:

Astronomy

Mar. 05, 2013 Rise Set
Actual Time 7:15 AM MST 6:40 PM MST
Civil Twilight 6:46 AM MST 7:09 PM MST
Nautical Twilight 6:13 AM MST 7:42 PM MST
Astronomical Twilight 5:40 AM MST 8:15 PM MST
Moon 2:40 AM MST 12:15 PM MST
Length of Visible Light 12h 22m
Length of Day
11h 25m
Last Quarter, 40% of the Moon is Illuminated
Mar 5
Last Quarter
Mar 11
New
Mar 19
First Quarter
Mar 27
Full
Apr 2
Last Quarter

Hourly Weather History & Observations

Time (MST) Temp. Windchill Dew Point Humidity Pressure Visibility Wind Dir Wind Speed Gust Speed Precip Events Conditions
12:15 AM 32.0 °F 23.0 °F 14.0 °F 48% 30.14 in 10.0 mi South 11.5 mph 17.3 mph N/A   Clear
12:35 AM 32.0 °F 22.1 °F 14.0 °F 48% 30.14 in 10.0 mi South 13.8 mph - N/A   Clear
12:55 AM 32.0 °F 22.1 °F 14.0 °F 48% 30.14 in 10.0 mi South 13.8 mph 20.7 mph N/A   Clear
1:15 AM 32.0 °F 23.0 °F 15.8 °F 51% 30.14 in 10.0 mi South 11.5 mph 18.4 mph N/A   Clear
1:35 AM 32.0 °F 22.5 °F 15.8 °F 51% 30.14 in 10.0 mi South 12.7 mph 21.9 mph N/A   Clear
1:55 AM 32.0 °F 23.6 °F 15.8 °F 51% 30.14 in 10.0 mi SSE 10.4 mph - N/A   Clear
2:15 AM 32.0 °F 23.6 °F 15.8 °F 51% 30.14 in 10.0 mi SSE 10.4 mph 18.4 mph N/A   Clear
2:35 AM 32.0 °F 23.0 °F 15.8 °F 51% 30.13 in 10.0 mi SSE 11.5 mph 17.3 mph N/A   Clear
2:55 AM 32.0 °F 23.0 °F 15.8 °F 51% 30.12 in 10.0 mi South 11.5 mph 16.1 mph N/A   Clear
3:15 AM 32.0 °F 23.0 °F 15.8 °F 51% 30.12 in 10.0 mi South 11.5 mph 18.4 mph N/A   Clear
3:35 AM 32.0 °F 24.2 °F 17.6 °F 55% 30.12 in 10.0 mi SSE 9.2 mph 16.1 mph N/A   Clear
3:55 AM 32.0 °F 23.0 °F 17.6 °F 55% 30.12 in 10.0 mi SSE 11.5 mph 16.1 mph N/A   Clear
4:15 AM 32.0 °F 23.6 °F 17.6 °F 55% 30.11 in 10.0 mi SSE 10.4 mph 20.7 mph N/A   Clear
4:35 AM 32.0 °F 24.8 °F 17.6 °F 55% 30.11 in 10.0 mi SSE 8.1 mph - N/A   Clear
4:55 AM 32.0 °F 24.8 °F 17.6 °F 55% 30.11 in 10.0 mi SE 8.1 mph - N/A   Clear
5:15 AM 32.0 °F 24.2 °F 19.4 °F 60% 30.10 in 10.0 mi SSE 9.2 mph - N/A   Clear
5:35 AM 32.0 °F 23.0 °F 17.6 °F 55% 30.10 in 10.0 mi SSE 11.5 mph 16.1 mph N/A   Clear
5:55 AM 32.0 °F 23.0 °F 19.4 °F 60% 30.10 in 10.0 mi SSE 11.5 mph 17.3 mph N/A   Clear
6:15 AM 32.0 °F 23.6 °F 19.4 °F 60% 30.09 in 10.0 mi SSE 10.4 mph - N/A   Clear
6:35 AM 32.0 °F 22.5 °F 17.6 °F 55% 30.08 in 10.0 mi SSE 12.7 mph 18.4 mph N/A   Clear
6:55 AM 32.0 °F 22.1 °F 17.6 °F 55% 30.08 in 10.0 mi SSE 13.8 mph 19.6 mph N/A   Clear
7:15 AM 32.0 °F 21.2 °F 17.6 °F 55% 30.07 in 10.0 mi South 16.1 mph 21.9 mph N/A   Scattered Clouds
7:35 AM 32.0 °F 22.5 °F 17.6 °F 55% 30.08 in 10.0 mi South 12.7 mph 17.3 mph N/A   Partly Cloudy
7:55 AM 32.0 °F 22.1 °F 17.6 °F 55% 30.07 in 10.0 mi SSE 13.8 mph 19.6 mph N/A   Clear
8:15 AM 33.8 °F 23.2 °F 17.6 °F 52% 30.06 in 10.0 mi South 17.3 mph 26.5 mph N/A   Clear
8:55 AM 35.6 °F 25.2 °F 17.6 °F 48% 30.07 in 10.0 mi South 18.4 mph 28.8 mph N/A   Clear
9:15 AM 37.4 °F 27.2 °F 17.6 °F 45% 30.07 in 10.0 mi SSE 19.6 mph 24.2 mph N/A   Clear
9:35 AM 39.2 °F 30.2 °F 15.8 °F 39% 30.06 in 10.0 mi South 17.3 mph 23.0 mph N/A   Clear
9:55 AM 39.2 °F 29.3 °F 15.8 °F 39% 30.06 in 10.0 mi SSE 20.7 mph 28.8 mph N/A   Partly Cloudy
10:15 AM 39.2 °F 30.2 °F 17.6 °F 42% 30.06 in 10.0 mi SSE 17.3 mph 27.6 mph N/A   Clear
10:35 AM 41.0 °F 32.2 °F 17.6 °F 39% 30.04 in 10.0 mi SSE 18.4 mph 26.5 mph N/A   Clear
10:55 AM 41.0 °F 32.8 °F 17.6 °F 39% 30.03 in 10.0 mi South 16.1 mph 28.8 mph N/A   Clear
11:15 AM 42.8 °F 34.5 °F 17.6 °F 36% 30.02 in 10.0 mi South 18.4 mph 27.6 mph N/A   Clear
11:55 AM 46.4 °F 38.1 °F 15.8 °F 29% 30.00 in 10.0 mi SSE 24.2 mph 33.4 mph N/A   Clear
12:15 PM 46.4 °F 37.5 °F 15.8 °F 29% 29.98 in 10.0 mi SSE 27.6 mph 35.7 mph N/A   Clear
12:35 PM 48.2 °F - 17.6 °F 30% 29.97 in 10.0 mi SSE 20.7 mph 33.4 mph N/A   Clear
12:55 PM 48.2 °F - 17.6 °F 30% 29.95 in 10.0 mi SSE 23.0 mph 32.2 mph N/A   Partly Cloudy
1:15 PM 48.2 °F - 17.6 °F 30% 29.95 in 10.0 mi SSE 20.7 mph 31.1 mph N/A   Partly Cloudy
1:35 PM 48.2 °F - 17.6 °F 30% 29.92 in 10.0 mi SSE 18.4 mph 35.7 mph N/A   Clear
1:55 PM 50.0 °F - 17.6 °F 28% 29.91 in 10.0 mi SSE 26.5 mph 35.7 mph N/A   Clear
2:15 PM 50.0 °F - 17.6 °F 28% 29.91 in 10.0 mi SSE 23.0 mph 32.2 mph N/A   Clear
2:35 PM 50.0 °F - 17.6 °F 28% 29.90 in 10.0 mi SSE 23.0 mph 34.5 mph N/A   Clear
2:55 PM 50.0 °F - 17.6 °F 28% 29.90 in 10.0 mi SSE 23.0 mph 32.2 mph N/A   Clear
3:15 PM 51.8 °F - 19.4 °F 28% 29.89 in 10.0 mi SSE 19.6 mph 31.1 mph N/A   Clear
3:35 PM 50.0 °F - 19.4 °F 30% 29.89 in 10.0 mi SSE 19.6 mph 29.9 mph N/A   Clear
3:55 PM 51.8 °F - 19.4 °F 28% 29.88 in 10.0 mi SSE 16.1 mph 28.8 mph N/A   Clear
4:15 PM 50.0 °F - 19.4 °F 30% 29.88 in 10.0 mi SSE 18.4 mph 29.9 mph N/A   Clear
4:35 PM 50.0 °F - 21.2 °F 32% 29.87 in 10.0 mi SSE 17.3 mph 27.6 mph N/A   Scattered Clouds
4:55 PM 50.0 °F - 21.2 °F 32% 29.86 in 10.0 mi SSE 16.1 mph 25.3 mph N/A   Mostly Cloudy
5:15 PM 50.0 °F - 21.2 °F 32% 29.86 in 10.0 mi SSE 13.8 mph 20.7 mph N/A   Mostly Cloudy
5:35 PM 50.0 °F - 21.2 °F 32% 29.85 in 10.0 mi SSE 12.7 mph 18.4 mph N/A   Overcast
5:55 PM 50.0 °F - 23.0 °F 35% 29.85 in 10.0 mi SSE 11.5 mph 17.3 mph N/A   Overcast
6:15 PM 48.2 °F - 23.0 °F 37% 29.85 in 10.0 mi ESE 10.4 mph - N/A   Scattered Clouds
6:35 PM 48.2 °F - 23.0 °F 37% 29.85 in 10.0 mi SE 11.5 mph - N/A   Scattered Clouds
6:55 PM 46.4 °F 41.1 °F 23.0 °F 40% 29.84 in 10.0 mi SSE 11.5 mph - N/A   Partly Cloudy
7:15 PM 46.4 °F 41.1 °F 23.0 °F 40% 29.84 in 10.0 mi SE 11.5 mph - N/A   Partly Cloudy
7:35 PM 44.6 °F 39.7 °F 23.0 °F 43% 29.84 in 10.0 mi SE 9.2 mph - N/A   Scattered Clouds
7:55 PM 44.6 °F 39.7 °F 23.0 °F 43% 29.83 in 10.0 mi SSE 9.2 mph - N/A   Overcast
8:15 PM 44.6 °F 39.2 °F 23.0 °F 43% 29.82 in 10.0 mi SSE 10.4 mph - N/A   Mostly Cloudy
8:35 PM 44.6 °F 38.4 °F 23.0 °F 43% 29.81 in 10.0 mi SSE 12.7 mph 18.4 mph N/A   Partly Cloudy
8:55 PM 44.6 °F 38.4 °F 23.0 °F 43% 29.80 in 10.0 mi South 12.7 mph 24.2 mph N/A   Mostly Cloudy
9:15 PM 44.6 °F 38.1 °F 23.0 °F 43% 29.80 in 10.0 mi SSE 13.8 mph 19.6 mph N/A   Partly Cloudy
9:35 PM 42.8 °F 35.8 °F 23.0 °F 46% 29.80 in 10.0 mi South 13.8 mph 21.9 mph N/A   Clear
9:55 PM 42.8 °F 37.0 °F 23.0 °F 46% 29.79 in 10.0 mi South 10.4 mph 20.7 mph N/A   Scattered Clouds
10:15 PM 41.0 °F 33.5 °F 23.0 °F 49% 29.78 in 10.0 mi SSE 13.8 mph 19.6 mph N/A   Mostly Cloudy
10:35 PM 42.8 °F 36.6 °F 23.0 °F 46% 29.78 in 10.0 mi South 11.5 mph 18.4 mph N/A   Mostly Cloudy
10:55 PM 41.0 °F 34.3 °F 23.0 °F 49% 29.76 in 10.0 mi South 11.5 mph 20.7 mph N/A   Overcast
11:15 PM 41.0 °F 33.5 °F 23.0 °F 49% 29.76 in 10.0 mi South 13.8 mph 21.9 mph N/A   Mostly Cloudy
11:35 PM 41.0 °F 33.9 °F 23.0 °F 49% 29.75 in 10.0 mi South 12.7 mph 20.7 mph N/A   Partly Cloudy
11:55 PM 41.0 °F 33.1 °F 23.0 °F 49% 29.74 in 10.0 mi South 15.0 mph 23.0 mph N/A   Partly Cloudy